createdAt,value
2023-01-17T00:02:03.791Z,17.20
2023-01-17T00:04:49.606Z,21.70
2023-01-17T00:07:37.628Z,20.60
2023-01-17T00:10:09.795Z,22.70
2023-01-17T00:12:36.558Z,23.90
2023-01-17T00:15:04.302Z,20.50
2023-01-17T00:17:32.068Z,19.70
2023-01-17T00:20:19.971Z,18.80
2023-01-17T00:23:08.095Z,25.90
2023-01-17T00:25:56.839Z,25.40
2023-01-17T00:28:24.259Z,22.70
2023-01-17T00:30:50.921Z,23.20
2023-01-17T00:33:18.118Z,23.30
2023-01-17T00:35:45.159Z,21.80
2023-01-17T00:38:13.724Z,22.90
2023-01-17T00:40:41.570Z,17.20
2023-01-17T00:43:27.220Z,27.60
2023-01-17T00:46:12.866Z,24.20
2023-01-17T00:48:58.223Z,24.50
2023-01-17T00:51:43.934Z,24.30
2023-01-17T00:54:29.455Z,25.70
2023-01-17T00:57:14.864Z,21.00
2023-01-17T01:00:00.464Z,19.00
2023-01-17T01:02:46.772Z,23.60
2023-01-17T01:05:33.168Z,22.70
2023-01-17T01:08:18.817Z,21.60
2023-01-17T01:11:06.392Z,19.40
2023-01-17T01:13:52.435Z,21.80
2023-01-17T01:16:38.008Z,18.90
2023-01-17T01:19:23.659Z,19.90
2023-01-17T01:22:09.318Z,19.40
2023-01-17T01:24:54.603Z,21.50
2023-01-17T01:27:42.600Z,21.30
2023-01-17T01:30:29.286Z,20.10
2023-01-17T01:33:14.438Z,21.30
2023-01-17T01:35:41.401Z,18.10
2023-01-17T01:38:08.689Z,21.60
2023-01-17T01:40:41.651Z,20.60
2023-01-17T01:43:08.779Z,18.20
2023-01-17T01:45:35.469Z,19.40
2023-01-17T01:48:14.946Z,16.40
2023-01-17T01:50:43.024Z,19.90
2023-01-17T01:53:09.703Z,17.90
2023-01-17T01:55:38.955Z,18.80
2023-01-17T01:58:14.626Z,16.10
2023-01-17T02:00:41.716Z,18.10
2023-01-17T02:03:19.851Z,19.60
2023-01-17T02:05:46.766Z,19.10
2023-01-17T02:08:16.646Z,18.00
2023-01-17T02:10:43.775Z,16.20
2023-01-17T02:13:11.267Z,16.20
2023-01-17T02:16:03.714Z,14.80
2023-01-17T02:18:59.108Z,14.00
2023-01-17T02:21:27.774Z,15.10
2023-01-17T02:24:19.134Z,16.50
2023-01-17T02:26:57.041Z,17.90
2023-01-17T02:29:48.848Z,17.10
2023-01-17T02:32:21.791Z,16.80
2023-01-17T02:35:05.396Z,13.00
2023-01-17T02:37:49.204Z,15.30
2023-01-17T02:40:20.135Z,16.80
2023-01-17T02:42:50.760Z,16.10
2023-01-17T02:45:18.097Z,17.60
2023-01-17T02:47:44.975Z,15.80
2023-01-17T02:50:22.761Z,18.30
2023-01-17T02:53:01.817Z,15.20
2023-01-17T02:55:57.188Z,19.20
2023-01-17T02:58:45.925Z,16.70
2023-01-17T03:01:41.033Z,13.90
2023-01-17T03:04:32.544Z,19.20
2023-01-17T03:07:04.652Z,19.00
2023-01-17T03:09:31.701Z,17.90
2023-01-17T03:12:02.637Z,19.20
2023-01-17T03:14:30.740Z,23.50
2023-01-17T03:16:57.375Z,18.60
2023-01-17T03:19:24.380Z,22.40
2023-01-17T03:21:51.392Z,20.60
2023-01-17T03:24:18.086Z,19.20
2023-01-17T03:26:44.705Z,22.00
2023-01-17T03:29:11.424Z,18.70
2023-01-17T03:31:38.075Z,21.20
2023-01-17T03:34:05.073Z,20.90
2023-01-17T03:36:32.273Z,21.40
2023-01-17T03:38:59.222Z,19.70
2023-01-17T03:41:25.849Z,18.90
2023-01-17T03:43:52.553Z,19.40
2023-01-17T03:46:20.833Z,20.40
2023-01-17T03:48:47.643Z,19.00
2023-01-17T03:51:14.396Z,20.90
2023-01-17T03:53:41.400Z,18.30
2023-01-17T03:56:09.758Z,18.30
2023-01-17T03:58:36.633Z,19.70
2023-01-17T04:01:03.452Z,17.60
2023-01-17T04:03:31.063Z,22.20
2023-01-17T04:05:57.894Z,19.30
2023-01-17T04:08:24.655Z,24.70
2023-01-17T04:10:51.352Z,19.00
2023-01-17T04:13:18.107Z,25.00
2023-01-17T04:15:45.660Z,21.90
2023-01-17T04:18:12.351Z,21.50
2023-01-17T04:20:44.043Z,22.20
2023-01-17T04:23:22.263Z,23.30
2023-01-17T04:25:52.063Z,23.20
2023-01-17T04:28:19.347Z,24.10
2023-01-17T04:30:46.359Z,24.50
2023-01-17T04:33:13.388Z,23.50
2023-01-17T04:35:40.678Z,27.30
2023-01-17T04:38:07.417Z,21.20
2023-01-17T04:40:34.103Z,26.30
2023-01-17T04:43:01.547Z,28.20
2023-01-17T04:45:28.359Z,25.80
2023-01-17T04:47:55.344Z,25.70
2023-01-17T04:50:22.036Z,32.20
2023-01-17T04:52:48.953Z,29.10
2023-01-17T04:55:15.706Z,25.50
2023-01-17T04:57:43.108Z,29.40
2023-01-17T05:00:11.193Z,28.40
2023-01-17T05:02:38.000Z,30.70
2023-01-17T05:05:06.858Z,32.00
2023-01-17T05:07:35.697Z,27.10
2023-01-17T05:10:03.987Z,32.40
2023-01-17T05:12:31.243Z,26.50
2023-01-17T05:14:58.217Z,30.40
2023-01-17T05:17:25.241Z,29.50
2023-01-17T05:19:51.975Z,31.50
2023-01-17T05:22:18.624Z,33.20
2023-01-17T05:24:46.261Z,29.20
2023-01-17T05:27:13.549Z,31.20
2023-01-17T05:29:40.409Z,22.90
2023-01-17T05:32:08.226Z,32.20
2023-01-17T05:34:40.197Z,30.00
2023-01-17T05:37:06.967Z,28.60
2023-01-17T05:39:33.694Z,38.00
2023-01-17T05:42:00.984Z,29.80
2023-01-17T05:44:27.836Z,31.00
2023-01-17T05:46:55.266Z,30.90
2023-01-17T05:49:22.066Z,26.30
2023-01-17T05:51:49.331Z,29.80
2023-01-17T05:54:16.107Z,29.30
2023-01-17T05:56:43.114Z,29.90
2023-01-17T05:59:10.796Z,29.90
2023-01-17T06:01:38.496Z,33.90
2023-01-17T06:04:05.335Z,33.60
2023-01-17T06:06:32.486Z,29.30
2023-01-17T06:08:59.128Z,27.70
2023-01-17T06:11:26.256Z,32.20
2023-01-17T06:13:53.059Z,33.20
2023-01-17T06:16:20.572Z,34.40
2023-01-17T06:18:49.379Z,28.20
2023-01-17T06:21:16.577Z,30.60
2023-01-17T06:23:43.319Z,35.80
2023-01-17T06:26:15.667Z,35.80
2023-01-17T06:28:42.404Z,29.60
2023-01-17T06:31:09.325Z,31.30
2023-01-17T06:33:36.565Z,27.20
2023-01-17T06:36:03.629Z,32.00
2023-01-17T06:38:30.638Z,32.20
2023-01-17T06:40:59.701Z,30.60
2023-01-17T06:43:27.795Z,34.60
2023-01-17T06:45:54.458Z,33.90
2023-01-17T06:48:21.616Z,37.10
2023-01-17T06:50:49.461Z,35.50
2023-01-17T06:53:17.256Z,32.60
2023-01-17T06:55:44.214Z,38.30
2023-01-17T06:58:11.180Z,35.00
2023-01-17T07:00:40.744Z,32.90
2023-01-17T07:03:16.979Z,38.00
2023-01-17T07:05:43.972Z,34.00
2023-01-17T07:08:12.098Z,35.70
2023-01-17T07:10:39.249Z,33.40
2023-01-17T07:13:06.139Z,37.20
2023-01-17T07:15:33.112Z,37.50
2023-01-17T07:18:03.169Z,36.60
2023-01-17T07:20:30.611Z,35.60
2023-01-17T07:22:57.272Z,32.00
2023-01-17T07:25:27.848Z,32.30
2023-01-17T07:27:57.041Z,34.90
2023-01-17T07:30:23.850Z,40.30
2023-01-17T07:32:53.354Z,37.40
2023-01-17T07:35:21.081Z,34.30
2023-01-17T07:37:51.175Z,36.70
2023-01-17T07:40:22.447Z,38.90
2023-01-17T07:42:49.769Z,38.00
2023-01-17T07:45:17.299Z,39.80
2023-01-17T07:47:44.338Z,37.20
2023-01-17T07:50:13.006Z,38.40
2023-01-17T07:52:39.819Z,39.50
2023-01-17T07:55:08.582Z,36.80
2023-01-17T07:57:35.856Z,35.60
2023-01-17T08:00:03.869Z,37.40
2023-01-17T08:02:39.238Z,35.20
2023-01-17T08:05:06.663Z,34.40
2023-01-17T08:07:34.229Z,37.40
2023-01-17T08:10:01.561Z,35.10
2023-01-17T08:12:29.139Z,34.70
2023-01-17T08:14:56.152Z,32.50
2023-01-17T08:17:23.393Z,36.70
2023-01-17T08:19:51.612Z,37.00
2023-01-17T08:22:18.328Z,36.60
2023-01-17T08:24:47.051Z,37.40
2023-01-17T08:27:14.711Z,34.70
2023-01-17T08:29:46.447Z,40.10
2023-01-17T08:32:15.139Z,33.10
2023-01-17T08:34:41.886Z,34.40
2023-01-17T08:37:09.416Z,40.20
2023-01-17T08:39:39.023Z,35.60
2023-01-17T08:42:06.077Z,36.10
2023-01-17T08:44:33.374Z,38.20
2023-01-17T08:47:03.630Z,36.50
2023-01-17T08:49:30.582Z,37.10
2023-01-17T08:51:57.266Z,39.40
2023-01-17T08:54:24.196Z,41.30
2023-01-17T08:56:52.351Z,36.00
2023-01-17T08:59:19.652Z,41.60
2023-01-17T09:01:47.708Z,37.70
2023-01-17T09:04:15.172Z,35.80
2023-01-17T13:19:24.172Z,44.00
2023-01-17T13:21:51.174Z,44.20
2023-01-17T13:25:06.367Z,47.20
2023-01-17T13:27:54.590Z,47.10
2023-01-17T13:30:44.394Z,51.60
2023-01-17T13:33:29.649Z,45.50
2023-01-17T13:35:59.923Z,45.50
2023-01-17T13:38:55.044Z,47.10
2023-01-17T13:41:30.928Z,49.40
2023-01-17T13:44:18.359Z,49.00
2023-01-17T13:46:57.557Z,48.50
2023-01-17T13:49:31.808Z,46.60
2023-01-17T13:52:23.180Z,46.90
2023-01-17T13:54:57.586Z,44.80
2023-01-17T13:57:29.931Z,49.80
2023-01-17T13:59:58.122Z,50.40
2023-01-17T14:02:38.688Z,51.80
2023-01-17T14:05:15.358Z,45.90
2023-01-17T14:07:46.008Z,50.60
2023-01-17T14:10:32.387Z,57.60
2023-01-17T14:12:59.264Z,50.00
2023-01-17T14:15:27.189Z,52.80
2023-01-17T14:17:59.101Z,50.40
2023-01-17T14:20:25.975Z,46.00
2023-01-17T14:22:53.623Z,44.50
2023-01-17T14:25:21.759Z,44.50
2023-01-17T14:27:50.344Z,53.40
2023-01-17T14:30:17.721Z,44.80
2023-01-17T14:33:06.079Z,49.90
2023-01-17T14:35:36.003Z,45.00
2023-01-17T14:38:05.738Z,54.10
2023-01-17T14:40:33.929Z,45.30
2023-01-17T14:43:03.253Z,48.70
2023-01-17T14:45:32.092Z,47.70
2023-01-17T14:48:00.221Z,52.00
2023-01-17T14:50:30.026Z,46.50
2023-01-17T14:53:10.455Z,45.30
2023-01-17T14:55:37.955Z,45.40
2023-01-17T14:58:05.047Z,46.10
2023-01-17T15:00:35.121Z,46.10
2023-01-17T15:03:02.398Z,52.50
2023-01-17T15:05:29.982Z,48.60
2023-01-17T15:07:57.643Z,49.80
2023-01-17T15:10:29.696Z,43.50
2023-01-17T15:12:57.580Z,49.70
2023-01-17T15:15:35.158Z,47.00
2023-01-17T15:18:30.061Z,40.40
2023-01-17T15:23:31.746Z,49.20
2023-01-17T15:25:58.663Z,46.70
2023-01-17T15:28:25.638Z,44.20
2023-01-17T15:31:04.539Z,54.20
2023-01-17T15:33:32.948Z,45.70
2023-01-17T15:36:04.918Z,46.40
2023-01-17T15:38:38.757Z,45.60
2023-01-17T15:41:11.889Z,43.20
2023-01-17T15:43:39.268Z,45.90
2023-01-17T15:46:06.324Z,46.00
2023-01-17T15:48:44.577Z,46.90
2023-01-17T15:51:12.209Z,41.80
2023-01-17T15:53:41.429Z,48.90
2023-01-17T15:56:37.957Z,51.80
2023-01-17T15:59:30.100Z,47.10
2023-01-17T16:01:58.599Z,48.80
2023-01-17T16:04:27.493Z,49.90
2023-01-17T16:06:54.369Z,45.50
2023-01-17T16:09:25.044Z,46.10
2023-01-17T16:11:51.831Z,46.00
2023-01-17T16:14:18.739Z,44.20
2023-01-17T16:16:50.598Z,47.10
2023-01-17T16:19:17.552Z,42.70
2023-01-17T16:21:46.815Z,44.90
2023-01-17T16:24:13.684Z,41.50
2023-01-17T16:26:40.534Z,44.10
2023-01-17T16:29:08.290Z,44.50
2023-01-17T16:31:35.541Z,45.70
2023-01-17T16:34:02.394Z,44.10
2023-01-17T16:36:29.232Z,47.90
2023-01-17T16:38:56.141Z,43.10
2023-01-17T16:41:23.191Z,48.80
2023-01-17T16:44:00.729Z,42.20
2023-01-17T16:46:28.663Z,41.30
2023-01-17T16:48:55.779Z,44.90
2023-01-17T16:51:22.781Z,49.50
2023-01-17T16:53:49.921Z,44.40
2023-01-17T16:56:17.498Z,42.50
2023-01-17T16:58:44.476Z,47.60
2023-01-17T17:01:16.073Z,34.60
2023-01-17T17:03:44.042Z,43.50
2023-01-17T17:06:11.077Z,43.90
2023-01-17T17:08:38.036Z,48.90
2023-01-17T17:11:15.546Z,47.20
2023-01-17T17:13:46.964Z,42.50
2023-01-17T17:16:19.063Z,33.50
2023-01-17T17:18:47.109Z,37.70
2023-01-17T17:21:14.691Z,45.50
2023-01-17T17:23:41.598Z,44.20
2023-01-17T17:26:08.536Z,39.00
2023-01-17T17:28:36.084Z,46.70
2023-01-17T17:31:08.673Z,35.70
2023-01-17T17:33:37.064Z,40.00
2023-01-17T17:36:10.252Z,43.60
2023-01-17T17:38:48.500Z,42.80
2023-01-17T17:41:15.479Z,44.00
2023-01-17T17:43:42.812Z,43.40
2023-01-17T17:46:09.881Z,40.00
2023-01-17T17:48:36.957Z,38.40
2023-01-17T17:51:04.219Z,39.90
2023-01-17T17:53:31.128Z,52.80
2023-01-17T17:56:03.475Z,47.10
2023-01-17T17:58:32.458Z,43.60
2023-01-17T18:01:02.418Z,35.50
2023-01-17T18:03:31.085Z,39.80
2023-01-17T18:06:08.738Z,40.40
2023-01-17T18:08:35.981Z,40.10
2023-01-17T18:11:08.431Z,44.50
2023-01-17T18:13:35.319Z,41.20
2023-01-17T18:16:29.407Z,37.80
2023-01-17T18:18:57.432Z,39.40
2023-01-17T18:21:28.047Z,35.20
2023-01-17T18:24:00.345Z,39.60
2023-01-17T18:26:29.100Z,36.70
2023-01-17T18:28:56.593Z,37.10
2023-01-17T18:31:30.393Z,39.40
2023-01-17T18:34:00.881Z,36.90
2023-01-17T18:36:30.690Z,47.60
2023-01-17T18:38:57.730Z,36.20
2023-01-17T18:41:27.151Z,42.80
2023-01-17T18:43:56.136Z,37.40
2023-01-17T18:46:23.911Z,42.30
2023-01-17T18:48:50.892Z,39.40
2023-01-17T18:51:18.899Z,37.10
2023-01-17T18:53:46.294Z,35.80
2023-01-17T18:56:16.158Z,41.30
2023-01-17T18:58:46.090Z,39.30
2023-01-17T19:01:17.571Z,36.80
2023-01-17T19:03:46.240Z,40.60
2023-01-17T19:06:15.908Z,38.40
2023-01-17T19:08:43.454Z,39.90
2023-01-17T19:11:11.567Z,44.00
2023-01-17T19:13:39.832Z,45.90
2023-01-17T19:16:09.220Z,44.60
2023-01-17T19:18:36.600Z,37.80
2023-01-17T19:21:13.831Z,38.70
2023-01-17T19:23:45.346Z,42.70
2023-01-17T19:26:14.098Z,46.40
2023-01-17T19:28:43.251Z,44.20
2023-01-17T19:31:13.112Z,39.00
2023-01-17T19:33:42.852Z,46.90
2023-01-17T19:36:14.129Z,40.20
2023-01-17T19:38:47.416Z,41.90
2023-01-17T19:41:27.679Z,42.10
2023-01-17T19:44:00.634Z,52.00
2023-01-17T19:46:28.810Z,41.80
2023-01-17T19:48:57.191Z,49.00
2023-01-17T19:51:25.646Z,33.80
2023-01-17T19:53:56.448Z,44.90
2023-01-17T19:56:25.604Z,49.00
2023-01-17T19:59:01.403Z,39.40
2023-01-17T20:01:31.653Z,44.10
2023-01-17T20:03:59.841Z,44.50
2023-01-17T20:06:29.767Z,44.90
2023-01-17T20:08:57.055Z,40.70
2023-01-17T20:11:27.768Z,46.60
2023-01-17T20:13:56.292Z,50.20
2023-01-17T20:16:27.790Z,48.80
2023-01-17T20:18:55.149Z,43.90
2023-01-17T20:21:23.733Z,45.30
2023-01-17T20:23:51.006Z,49.20
2023-01-17T20:26:19.804Z,45.90
2023-01-17T20:28:47.630Z,41.10
2023-01-17T20:31:21.138Z,40.80
2023-01-17T20:33:50.411Z,46.90
2023-01-17T20:36:17.978Z,42.90
2023-01-17T20:38:45.068Z,51.10
2023-01-17T20:41:13.588Z,42.60
2023-01-17T20:43:41.547Z,43.70
2023-01-17T20:46:09.510Z,45.80
2023-01-17T20:48:39.209Z,44.50
2023-01-17T20:51:07.494Z,50.70
2023-01-17T20:53:35.032Z,42.20
2023-01-17T20:56:01.871Z,41.50
2023-01-17T20:58:28.843Z,39.80
2023-01-17T21:00:56.289Z,43.70
2023-01-17T21:03:24.119Z,40.40
2023-01-17T21:05:51.446Z,40.60
2023-01-17T21:08:18.730Z,42.90
2023-01-17T21:10:48.839Z,39.70
2023-01-17T21:13:17.350Z,51.90
2023-01-17T21:15:46.761Z,38.70
2023-01-17T21:18:14.524Z,37.10
2023-01-17T21:20:41.418Z,45.00
2023-01-17T21:23:09.261Z,41.90
2023-01-17T21:25:36.446Z,43.50
2023-01-17T21:28:03.568Z,43.30
2023-01-17T21:30:30.444Z,43.40
2023-01-17T21:32:57.416Z,41.40
2023-01-17T21:35:24.299Z,39.60
2023-01-17T21:37:51.154Z,42.80
2023-01-17T21:40:18.770Z,42.50
2023-01-17T21:42:45.643Z,35.70
2023-01-17T21:45:12.562Z,39.70
2023-01-17T21:47:44.581Z,38.20
2023-01-17T21:50:12.996Z,39.40
2023-01-17T21:52:42.379Z,39.40
2023-01-17T21:55:28.272Z,36.20
2023-01-17T21:58:13.988Z,37.50
2023-01-17T22:00:43.936Z,39.00
2023-01-17T22:03:10.881Z,36.10
2023-01-17T22:05:37.795Z,39.90
2023-01-17T22:08:15.379Z,39.60
2023-01-17T22:10:45.266Z,38.20
2023-01-17T22:13:13.686Z,40.40
2023-01-17T22:15:40.573Z,33.80
2023-01-17T22:18:07.631Z,36.70
2023-01-17T22:20:34.548Z,41.20
2023-01-17T22:23:01.404Z,39.50
2023-01-17T22:25:28.433Z,37.60
2023-01-17T22:27:55.843Z,37.80
2023-01-17T22:30:22.932Z,33.20
2023-01-17T22:32:49.861Z,38.10
2023-01-17T22:35:16.754Z,40.60
2023-01-17T22:37:44.595Z,34.40
2023-01-17T22:40:12.654Z,33.80
2023-01-17T22:42:39.532Z,36.50
2023-01-17T22:45:07.852Z,38.30
2023-01-17T22:47:34.756Z,37.10
2023-01-17T22:50:02.259Z,36.10
2023-01-17T22:52:29.144Z,40.60
2023-01-17T22:54:56.025Z,36.70
2023-01-17T22:57:23.406Z,36.30
2023-01-17T22:59:50.773Z,41.60
2023-01-17T23:02:20.733Z,42.70
2023-01-17T23:04:49.136Z,34.80
2023-01-17T23:07:16.141Z,38.60
2023-01-17T23:09:42.972Z,37.20
2023-01-17T23:12:10.467Z,42.10
2023-01-17T23:14:56.143Z,37.10
2023-01-17T23:17:42.404Z,40.80
2023-01-17T23:20:11.250Z,36.60
2023-01-17T23:22:38.114Z,38.90
2023-01-17T23:25:11.022Z,37.70
2023-01-17T23:28:04.177Z,25.20
2023-01-17T23:30:38.443Z,38.90
2023-01-17T23:33:09.740Z,37.40
2023-01-17T23:35:41.664Z,38.20
2023-01-17T23:38:34.125Z,36.50
2023-01-17T23:41:24.269Z,32.70
2023-01-17T23:43:58.280Z,34.90
2023-01-17T23:46:25.665Z,38.90
2023-01-17T23:48:52.871Z,41.30
2023-01-17T23:51:19.757Z,39.30
2023-01-17T23:53:46.636Z,35.40
2023-01-17T23:56:17.601Z,32.50
2023-01-17T23:58:44.550Z,32.30
